Seaside Heights, New Jersey
Current Conditions -  °F | °C
As of 2:55 PM on Saturday 25 Oct 2014 (Local Time) from KMJX Reporting Station
Clear Clear  
Wind Chill: 68°   Ceiling: Unl
Heat Index: 68°   Visibility: 10mi
Dew Point: 43°   Wind: 12mph
Humidity: 40%   Direction: 260°W
Pressure: 29.75"   Gusts: 20mph
Location:  39.94°N, 74.07°W
Report Text: KMJX 251855Z AUTO 26010G17KT 10SM CLR 20/06 A2975 RMK AO1
Loading
Personal Weather Stations






























Interactive Weather Map
Tropical Storm Tracking
New forecast layout! Learn more

10-Day Weather Forecast

Advertisements
Track Severe Weather on mobile